Time;durP1;ratioP1;P1;durP2;ratioP2;P2;SDS_P1;SDS_P2;PMS_P1;PMS_P2;Temp;Humidity;BMP_temperature;BMP_pressure;BME280_temperature;BME280_humidity;BME280_pressure;Samples;Min_cycle;Max_cycle;Signal;HPM_P1;HPM_P2
2024/03/26 00:01:05;;;;;;;12.40;6.90;;;;;;;2.37;69.64;98316.90;106504;1261;97900;-79
2024/03/26 00:03:44;;;;;;;12.40;6.20;;;;;;;2.36;69.71;98315.23;106325;1267;105646;-78
2024/03/26 00:06:11;;;;;;;9.70;5.80;;;;;;;2.38;69.80;98315.30;106318;1263;97976;-78
2024/03/26 00:08:39;;;;;;;9.00;5.50;;;;;;;2.38;69.80;98319.13;106345;1263;97954;-78
2024/03/26 00:11:07;;;;;;;10.60;5.90;;;;;;;2.37;69.66;98316.57;106373;1263;110490;-78
2024/03/26 00:13:34;;;;;;;10.70;5.70;;;;;;;2.38;69.81;98318.45;106540;1262;97764;-78
2024/03/26 00:16:02;;;;;;;11.30;6.30;;;;;;;2.38;69.98;98313.71;106303;1263;107391;-79
2024/03/26 00:18:30;;;;;;;10.90;6.00;;;;;;;2.38;70.02;98316.49;106672;1261;96801;-78
2024/03/26 00:20:57;;;;;;;10.60;6.10;;;;;;;2.38;69.76;98318.23;106417;1263;97859;-78
2024/03/26 00:23:25;;;;;;;12.50;6.50;;;;;;;2.38;69.93;98315.48;106353;1260;109831;-78
2024/03/26 00:25:52;;;;;;;9.80;6.00;;;;;;;2.34;70.09;98316.52;106329;1262;99301;-78
2024/03/26 00:28:20;;;;;;;10.70;6.20;;;;;;;2.33;69.99;98317.80;106432;1264;106070;-78
2024/03/26 00:30:47;;;;;;;9.20;5.50;;;;;;;2.31;69.61;98323.86;106321;1261;97965;-78
2024/03/26 00:33:15;;;;;;;10.70;5.60;;;;;;;2.30;69.88;98320.77;106292;1264;97865;-78
2024/03/26 00:35:43;;;;;;;9.50;6.00;;;;;;;2.31;69.98;98324.36;106518;1257;111265;-80
2024/03/26 00:38:10;;;;;;;9.60;5.70;;;;;;;2.30;70.14;98322.67;106276;1258;97903;-78
2024/03/26 00:40:38;;;;;;;11.60;5.90;;;;;;;2.31;70.07;98325.79;106304;1258;106729;-78
2024/03/26 00:43:05;;;;;;;8.50;5.70;;;;;;;2.32;70.34;98324.67;106310;1263;97903;-79
2024/03/26 00:45:33;;;;;;;10.70;6.10;;;;;;;2.35;70.17;98325.58;106243;1264;97884;-79
2024/03/26 00:48:01;;;;;;;9.90;6.00;;;;;;;2.36;70.11;98327.46;106430;1263;111079;-78
2024/03/26 00:50:28;;;;;;;9.50;6.10;;;;;;;2.39;69.98;98329.75;106418;1257;97925;-79
2024/03/26 00:52:56;;;;;;;9.60;6.20;;;;;;;2.40;70.28;98328.68;106096;1262;105576;-79
2024/03/26 00:55:23;;;;;;;11.30;6.30;;;;;;;2.38;69.92;98333.83;106396;1271;97980;-78
2024/03/26 00:57:51;;;;;;;10.80;5.90;;;;;;;2.37;70.05;98335.66;106389;1262;97995;-78
2024/03/26 01:00:19;;;;;;;10.50;6.20;;;;;;;2.36;70.25;98336.70;106448;1257;110451;-77
2024/03/26 01:02:47;;;;;;;12.40;6.60;;;;;;;2.36;70.01;98338.80;106463;1262;97879;-78
2024/03/26 01:05:14;;;;;;;12.30;6.80;;;;;;;2.36;70.22;98340.20;106189;1263;107653;-78
2024/03/26 01:07:42;;;;;;;11.10;6.50;;;;;;;2.35;70.14;98341.48;106404;1258;98729;-78
2024/03/26 01:10:09;;;;;;;12.20;7.20;;;;;;;2.34;70.43;98343.64;106161;1264;97996;-78
2024/03/26 01:12:37;;;;;;;14.90;8.10;;;;;;;2.33;70.28;98347.04;106238;1273;111387;-79
2024/03/26 01:15:05;;;;;;;13.70;7.70;;;;;;;2.29;70.40;98344.25;106279;1273;97873;-78
2024/03/26 01:17:32;;;;;;;15.90;7.80;;;;;;;2.32;70.26;98348.27;106417;1263;106350;-78
2024/03/26 01:20:00;;;;;;;14.90;7.60;;;;;;;2.32;70.19;98353.02;106239;1263;97967;-78
2024/03/26 01:22:28;;;;;;;13.20;7.40;;;;;;;2.30;70.20;98350.86;106439;1261;98127;-78
2024/03/26 01:24:55;;;;;;;12.40;6.90;;;;;;;2.30;70.36;98355.27;106357;1259;109987;-78
2024/03/26 01:27:23;;;;;;;18.40;7.80;;;;;;;2.27;70.36;98351.15;105769;1263;97991;-79
2024/03/26 01:29:51;;;;;;;11.90;6.90;;;;;;;2.27;70.31;98355.00;105042;1263;108084;-80
2024/03/26 01:32:18;;;;;;;14.80;7.60;;;;;;;2.28;70.54;98357.79;105387;1271;97974;-79
2024/03/26 01:34:46;;;;;;;13.00;7.00;;;;;;;2.28;70.47;98363.55;105623;1264;97967;-78
2024/03/26 01:37:13;;;;;;;13.20;7.90;;;;;;;2.27;70.31;98359.56;105000;1263;111277;-79
2024/03/26 01:39:41;;;;;;;11.90;7.10;;;;;;;2.25;70.21;98358.79;105168;1261;98002;-80
2024/03/26 01:42:08;;;;;;;13.10;7.30;;;;;;;2.25;70.44;98355.11;105337;1260;106877;-80
2024/03/26 01:44:36;;;;;;;13.30;7.00;;;;;;;2.25;70.26;98356.69;105380;1264;98089;-79
2024/03/26 01:47:04;;;;;;;12.10;6.80;;;;;;;2.23;70.35;98355.39;105011;1264;97929;-79
2024/03/26 01:49:34;;;;;;;12.80;7.70;;;;;;;2.22;70.41;98360.69;105647;1273;110879;-80
2024/03/26 01:52:02;;;;;;;13.00;7.70;;;;;;;2.17;70.19;98368.52;106084;1262;97792;-80
2024/03/26 01:54:29;;;;;;;11.90;7.00;;;;;;;2.11;70.46;98370.52;105319;1257;106143;-80
2024/03/26 01:56:57;;;;;;;13.60;7.40;;;;;;;2.06;70.20;98371.98;105319;1262;98555;-80
2024/03/26 01:59:26;;;;;;;14.60;7.00;;;;;;;2.02;70.13;98372.53;105273;1261;97989;-79
2024/03/26 02:01:53;;;;;;;13.60;7.80;;;;;;;1.97;69.92;98373.80;105271;1260;110860;-79
2024/03/26 02:04:21;;;;;;;12.50;7.00;;;;;;;1.92;70.03;98377.02;105116;1264;98792;-79
2024/03/26 02:06:49;;;;;;;12.30;7.00;;;;;;;1.88;70.11;98378.63;105252;1264;107743;-79
2024/03/26 02:09:16;;;;;;;11.60;6.50;;;;;;;1.84;70.05;98379.17;105687;1263;98008;-79
2024/03/26 02:11:44;;;;;;;11.40;6.40;;;;;;;1.77;70.00;98377.22;105695;1262;97978;-78
2024/03/26 02:14:12;;;;;;;13.10;6.50;;;;;;;1.73;70.22;98381.77;105347;1263;111290;-79
2024/03/26 02:16:40;;;;;;;12.50;6.50;;;;;;;1.73;70.30;98382.80;105089;1264;97892;-80
2024/03/26 02:19:08;;;;;;;9.90;6.20;;;;;;;1.74;70.31;98389.78;105298;1263;106758;-80
2024/03/26 02:21:35;;;;;;;12.50;6.40;;;;;;;1.70;69.98;98389.62;105234;1258;98914;-80
2024/03/26 02:24:03;;;;;;;11.00;6.40;;;;;;;1.64;70.27;98390.38;105121;1264;97946;-79
2024/03/26 02:26:31;;;;;;;12.30;6.40;;;;;;;1.60;70.22;98393.90;105264;1262;108993;-79
2024/03/26 02:28:59;;;;;;;10.20;6.00;;;;;;;1.57;70.40;98394.58;106099;1262;97855;-80
2024/03/26 02:31:26;;;;;;;10.70;6.00;;;;;;;1.54;70.22;98396.98;105039;1263;106757;-80
2024/03/26 02:33:54;;;;;;;9.80;5.50;;;;;;;1.48;70.39;98400.55;105489;1264;99180;-78
2024/03/26 02:36:21;;;;;;;11.50;6.40;;;;;;;1.46;70.27;98396.81;105127;1262;98707;-79
2024/03/26 02:38:50;;;;;;;12.50;6.40;;;;;;;1.44;70.36;98393.41;105168;1264;149690;-80
2024/03/26 02:41:18;;;;;;;11.70;5.90;;;;;;;1.40;70.22;98397.09;105246;1261;97877;-79
2024/03/26 02:43:49;;;;;;;12.70;5.60;;;;;;;1.34;70.37;98397.39;105454;1257;108088;-79
2024/03/26 02:46:17;;;;;;;11.20;6.40;;;;;;;1.29;70.41;98399.52;105164;1263;98054;-80
2024/03/26 02:48:45;;;;;;;10.00;5.50;;;;;;;1.28;70.33;98398.48;105215;1260;99437;-80
2024/03/26 02:51:12;;;;;;;11.30;6.50;;;;;;;1.24;70.34;98399.38;105964;1257;111264;-79
2024/03/26 02:53:40;;;;;;;12.20;6.10;;;;;;;1.20;70.31;98405.86;105674;1263;97994;-80
2024/03/26 02:56:07;;;;;;;12.00;6.40;;;;;;;1.18;70.28;98411.20;104952;1263;106652;-80
2024/03/26 02:58:35;;;;;;;10.00;6.20;;;;;;;1.13;70.22;98412.82;105194;1263;97987;-80
2024/03/26 03:01:10;;;;;;;10.20;5.80;;;;;;;1.09;70.33;98418.20;105229;1258;97987;-80
2024/03/26 03:03:38;;;;;;;9.60;5.80;;;;;;;1.00;70.20;98414.60;105015;1262;110946;-79
2024/03/26 03:06:07;;;;;;;8.80;5.40;;;;;;;0.98;70.32;98418.91;105234;1261;97988;-80
2024/03/26 03:08:36;;;;;;;12.10;6.60;;;;;;;0.95;70.20;98417.08;105260;1264;107130;-80
2024/03/26 03:11:05;;;;;;;9.40;5.50;;;;;;;0.91;70.36;98410.64;105350;1271;98001;-79
2024/03/26 03:13:32;;;;;;;11.10;5.70;;;;;;;0.90;70.37;98409.11;105101;1273;97939;-80
2024/03/26 03:16:00;;;;;;;10.90;5.90;;;;;;;0.88;70.22;98413.20;105248;1262;109425;-79
2024/03/26 03:18:28;;;;;;;10.00;6.10;;;;;;;0.87;70.42;98410.27;105058;1264;97875;-80
2024/03/26 03:20:56;;;;;;;12.10;6.00;;;;;;;0.85;70.39;98411.59;105255;1264;107704;-80
2024/03/26 03:23:23;;;;;;;12.60;5.90;;;;;;;0.83;70.37;98414.79;104966;1263;97987;-79
2024/03/26 03:25:56;;;;;;;11.00;6.10;;;;;;;0.78;70.29;98413.13;105584;1264;97942;-79
2024/03/26 03:28:23;;;;;;;9.10;5.70;;;;;;;0.70;70.42;98412.56;105680;1263;110045;-79
2024/03/26 03:30:52;;;;;;;11.30;6.70;;;;;;;0.67;70.41;98415.33;105253;1262;97931;-79
2024/03/26 03:33:19;;;;;;;11.00;6.40;;;;;;;0.66;70.31;98415.19;105163;1268;107981;-79
2024/03/26 03:35:50;;;;;;;11.70;6.10;;;;;;;0.66;70.42;98417.80;106208;1257;97961;-79
2024/03/26 03:38:17;;;;;;;10.80;5.90;;;;;;;0.69;70.51;98418.39;105568;1262;99326;-79
2024/03/26 03:40:45;;;;;;;12.60;5.80;;;;;;;0.68;70.36;98419.65;105209;1257;110032;-80
2024/03/26 03:43:12;;;;;;;10.50;5.70;;;;;;;0.68;70.32;98421.23;105300;1258;97905;-80
2024/03/26 03:45:40;;;;;;;11.00;6.10;;;;;;;0.67;70.51;98424.57;107149;1257;107912;-79
2024/03/26 03:48:08;;;;;;;9.30;5.00;;;;;;;0.68;70.24;98428.39;107892;1259;96547;-78
2024/03/26 03:50:36;;;;;;;8.50;5.50;;;;;;;0.62;70.29;98428.96;105249;1263;97967;-78
2024/03/26 03:53:04;;;;;;;9.80;5.50;;;;;;;0.61;70.18;98427.25;105107;1263;109951;-79
2024/03/26 03:55:32;;;;;;;11.90;6.50;;;;;;;0.62;70.41;98432.13;106286;1262;98224;-78
2024/03/26 03:57:59;;;;;;;10.70;6.00;;;;;;;0.63;70.55;98433.30;105193;1263;106136;-79
2024/03/26 04:00:27;;;;;;;9.70;5.80;;;;;;;0.64;70.51;98432.02;104973;1271;97994;-79
2024/03/26 04:02:55;;;;;;;9.70;5.40;;;;;;;0.63;70.60;98428.56;105081;1258;98212;-79
2024/03/26 04:05:23;;;;;;;8.60;4.90;;;;;;;0.61;70.52;98430.27;105245;1259;110395;-79
2024/03/26 04:07:50;;;;;;;11.10;5.80;;;;;;;0.63;70.58;98432.61;105035;1272;97986;-79
2024/03/26 04:10:18;;;;;;;11.20;6.00;;;;;;;0.61;70.57;98436.88;105298;1259;106799;-78
2024/03/26 04:12:45;;;;;;;11.50;6.20;;;;;;;0.61;70.42;98438.27;105763;1264;98051;-79
2024/03/26 04:15:13;;;;;;;11.50;6.20;;;;;;;0.59;70.63;98441.47;106478;1258;98063;-78
2024/03/26 04:17:40;;;;;;;9.10;5.40;;;;;;;0.57;70.30;98444.34;106375;1262;109194;-78
2024/03/26 04:20:08;;;;;;;9.70;6.10;;;;;;;0.55;70.45;98448.80;105295;1275;97914;-79
2024/03/26 04:22:36;;;;;;;10.80;5.90;;;;;;;0.54;70.53;98450.23;105296;1262;107892;-79
2024/03/26 04:25:04;;;;;;;10.10;6.00;;;;;;;0.55;70.72;98452.48;105324;1273;98669;-79
2024/03/26 04:27:31;;;;;;;12.20;6.50;;;;;;;0.58;70.68;98453.21;105135;1263;98134;-80
2024/03/26 04:29:59;;;;;;;10.80;6.40;;;;;;;0.61;70.63;98449.61;105374;1259;111242;-79
2024/03/26 04:32:27;;;;;;;14.10;6.40;;;;;;;0.64;70.74;98448.60;105330;1259;98008;-79
2024/03/26 04:34:54;;;;;;;9.70;5.80;;;;;;;0.66;70.81;98443.45;105927;1259;107567;-79
2024/03/26 04:37:22;;;;;;;12.30;6.70;;;;;;;0.69;70.79;98445.77;106005;1262;97996;-79
2024/03/26 04:39:53;;;;;;;11.60;6.30;;;;;;;0.74;70.87;98449.77;105153;1260;99071;-80
2024/03/26 04:42:21;;;;;;;11.70;6.40;;;;;;;0.76;70.61;98454.21;105473;1257;111273;-79
2024/03/26 04:44:49;;;;;;;11.60;6.50;;;;;;;0.75;70.88;98455.11;106354;1260;97901;-79
2024/03/26 04:47:16;;;;;;;11.00;6.20;;;;;;;0.79;70.96;98456.88;105280;1261;106767;-79
2024/03/26 04:49:44;;;;;;;12.20;6.30;;;;;;;0.84;70.91;98461.36;104995;1260;98669;-79
2024/03/26 04:52:11;;;;;;;11.90;6.70;;;;;;;0.88;71.27;98464.52;105308;1261;97902;-79
2024/03/26 04:54:39;;;;;;;11.30;6.60;;;;;;;0.92;71.17;98465.41;105095;1260;111271;-80
2024/03/26 04:57:06;;;;;;;11.20;6.50;;;;;;;0.95;71.05;98466.34;105102;1262;98904;-80
2024/03/26 04:59:34;;;;;;;11.70;6.40;;;;;;;0.97;71.17;98462.91;105041;1257;107664;-80
2024/03/26 05:02:02;;;;;;;14.40;7.10;;;;;;;1.02;71.15;98465.48;105451;1260;97955;-78
2024/03/26 05:04:30;;;;;;;11.80;7.10;;;;;;;1.07;71.35;98466.52;105099;1260;97973;-78
2024/03/26 05:06:58;;;;;;;14.40;7.40;;;;;;;1.13;71.29;98465.56;105058;1260;111303;-78
2024/03/26 05:09:26;;;;;;;13.50;7.40;;;;;;;1.21;71.19;98466.09;105192;1257;97913;-78
2024/03/26 05:11:54;;;;;;;13.50;7.30;;;;;;;1.29;71.20;98467.65;104915;1263;105978;-77
2024/03/26 05:14:22;;;;;;;13.70;8.60;;;;;;;1.34;71.40;98466.73;105041;1257;98117;-74
2024/03/26 05:17:00;;;;;;;15.50;7.10;;;;;;;1.41;71.01;98469.20;105180;1261;98338;-78
2024/03/26 05:19:28;;;;;;;13.20;7.80;;;;;;;1.48;71.05;98468.88;105168;1266;112884;-79
2024/03/26 05:21:58;;;;;;;14.10;7.70;;;;;;;1.55;71.03;98468.44;105011;1263;97907;-79
2024/03/26 05:24:29;;;;;;;12.40;7.30;;;;;;;1.63;71.67;98473.64;104953;1263;107629;-78
2024/03/26 05:26:56;;;;;;;14.00;7.10;;;;;;;1.70;71.75;98475.75;104919;1257;98060;-79
2024/03/26 05:29:25;;;;;;;13.50;7.50;;;;;;;1.79;71.47;98477.64;106616;1262;97958;-79
2024/03/26 05:31:56;;;;;;;11.80;7.00;;;;;;;1.88;71.57;98482.30;105031;1257;111438;-78
2024/03/26 05:34:25;;;;;;;13.80;7.30;;;;;;;1.97;71.88;98478.91;105338;1262;97994;-78
2024/03/26 05:36:53;;;;;;;13.70;7.40;;;;;;;2.07;71.87;98481.26;105424;1259;107353;-78
2024/03/26 05:39:21;;;;;;;13.40;7.60;;;;;;;2.15;71.95;98479.64;105272;1262;97998;-79
2024/03/26 05:41:50;;;;;;;11.50;7.00;;;;;;;2.23;71.91;98475.04;104991;1261;97955;-76
2024/03/26 05:44:18;;;;;;;13.70;7.20;;;;;;;2.31;71.95;98473.46;105402;1260;111270;-76
2024/03/26 05:46:46;;;;;;;14.70;8.10;;;;;;;2.37;71.73;98479.27;105097;1260;99187;-76
2024/03/26 05:49:14;;;;;;;11.30;7.10;;;;;;;2.46;71.86;98480.27;105113;1259;107858;-76
2024/03/26 05:51:41;;;;;;;12.40;6.60;;;;;;;2.54;71.86;98487.55;104968;1261;99024;-75
2024/03/26 05:54:09;;;;;;;11.60;7.00;;;;;;;2.61;71.93;98490.41;105010;1260;97964;-76
2024/03/26 05:56:37;;;;;;;12.80;7.30;;;;;;;2.68;71.84;98497.05;104947;1259;111105;-77
2024/03/26 05:59:05;;;;;;;13.80;7.40;;;;;;;2.75;72.12;98493.89;104731;1257;98060;-77
2024/03/26 06:01:32;;;;;;;13.00;7.70;;;;;;;2.82;72.34;98490.04;104937;1260;107619;-76
2024/03/26 06:04:00;;;;;;;14.30;7.70;;;;;;;2.91;72.08;98482.92;104889;1262;98012;-76
2024/03/26 06:06:29;;;;;;;14.30;7.70;;;;;;;2.99;72.29;98485.16;106847;1259;98001;-76
2024/03/26 06:08:57;;;;;;;12.70;7.10;;;;;;;3.06;72.11;98486.90;104985;1259;110547;-76
2024/03/26 06:11:24;;;;;;;13.20;7.80;;;;;;;3.14;72.30;98486.67;105046;1260;97980;-75
2024/03/26 06:13:52;;;;;;;16.00;8.90;;;;;;;3.24;72.21;98486.72;105060;1258;106803;-76
2024/03/26 06:16:20;;;;;;;12.80;7.60;;;;;;;3.35;72.19;98489.48;104728;1257;97946;-75
2024/03/26 06:18:48;;;;;;;13.40;7.60;;;;;;;3.44;72.03;98498.96;105156;1257;99178;-76
2024/03/26 06:21:15;;;;;;;15.20;8.10;;;;;;;3.54;72.30;98502.14;104987;1259;111582;-76
2024/03/26 06:23:43;;;;;;;13.00;8.10;;;;;;;3.63;72.12;98506.09;104980;1256;99295;-76
2024/03/26 06:26:11;;;;;;;16.40;8.40;;;;;;;3.71;72.32;98508.96;105000;1262;107290;-76
2024/03/26 06:28:39;;;;;;;15.00;8.00;;;;;;;3.79;72.17;98506.77;104807;1257;97971;-77
2024/03/26 06:31:07;;;;;;;15.70;7.50;;;;;;;3.87;72.46;98504.95;105086;1263;97868;-74
2024/03/26 06:33:35;;;;;;;17.70;10.60;;;;;;;3.95;72.38;98504.35;104722;1259;112129;-76
2024/03/26 06:36:03;;;;;;;18.90;9.90;;;;;;;4.01;72.39;98511.23;104991;1260;99387;-75
2024/03/26 06:38:31;;;;;;;17.80;9.80;;;;;;;4.09;72.34;98506.92;105044;1263;106808;-76
2024/03/26 06:40:58;;;;;;;16.50;8.80;;;;;;;4.20;72.43;98507.23;104719;1261;98092;-77
2024/03/26 06:43:26;;;;;;;15.50;9.20;;;;;;;4.28;72.43;98512.52;105194;1257;97959;-76
2024/03/26 06:45:54;;;;;;;14.60;8.70;;;;;;;4.35;72.18;98512.91;105047;1259;111333;-76
2024/03/26 06:48:22;;;;;;;11.30;7.10;;;;;;;4.41;72.37;98511.29;105106;1258;97917;-76
2024/03/26 06:50:50;;;;;;;13.70;6.70;;;;;;;4.49;72.47;98513.65;104966;1261;108152;-79
2024/03/26 06:53:18;;;;;;;14.30;7.90;;;;;;;4.61;72.52;98513.88;104921;1257;97980;-75
2024/03/26 06:55:46;;;;;;;12.60;7.10;;;;;;;4.72;72.47;98513.95;104768;1262;98044;-76
2024/03/26 06:58:14;;;;;;;11.60;6.70;;;;;;;4.80;72.44;98512.95;105076;1257;111182;-76
2024/03/26 07:00:42;;;;;;;11.20;5.90;;;;;;;4.85;72.55;98514.59;105102;1262;99161;-76
2024/03/26 07:03:10;;;;;;;11.80;6.30;;;;;;;4.96;72.57;98515.20;105090;1263;107445;-75
2024/03/26 07:05:38;;;;;;;12.90;6.20;;;;;;;5.06;72.64;98514.48;104945;1260;97987;-75
2024/03/26 07:08:06;;;;;;;11.60;6.40;;;;;;;5.16;72.73;98515.08;105002;1260;97904;-76
2024/03/26 07:10:33;;;;;;;11.70;6.60;;;;;;;5.29;72.62;98514.84;105037;1258;112239;-76
2024/03/26 07:13:02;;;;;;;11.30;6.80;;;;;;;5.37;72.68;98511.89;105091;1260;97968;-76
2024/03/26 07:15:30;;;;;;;10.10;5.90;;;;;;;5.47;72.74;98505.13;105248;1260;107480;-76
2024/03/26 07:17:58;;;;;;;8.70;5.50;;;;;;;5.58;72.76;98507.30;105036;1257;98023;-75
2024/03/26 07:20:26;;;;;;;11.50;6.20;;;;;;;5.68;72.87;98504.80;104959;1260;98066;-76
2024/03/26 07:22:54;;;;;;;11.80;6.50;;;;;;;5.72;72.61;98505.43;105066;1261;111241;-76
2024/03/26 07:25:21;;;;;;;9.40;5.20;;;;;;;5.75;72.54;98507.84;104831;1260;97920;-76
2024/03/26 07:27:49;;;;;;;9.70;6.50;;;;;;;5.80;72.58;98508.41;105034;1262;106374;-76
2024/03/26 07:30:19;;;;;;;12.40;6.60;;;;;;;5.90;72.86;98505.73;104671;1262;97974;-78
2024/03/26 07:32:47;;;;;;;8.90;5.30;;;;;;;6.00;72.94;98506.15;105008;1257;97993;-75
2024/03/26 07:35:16;;;;;;;10.70;5.60;;;;;;;6.14;72.70;98507.23;104930;1260;111387;-75
2024/03/26 07:37:46;;;;;;;7.80;6.00;;;;;;;6.25;72.69;98507.09;104920;1263;97997;-75
2024/03/26 07:40:15;;;;;;;7.60;4.80;;;;;;;6.35;72.82;98506.76;104998;1260;107300;-76
2024/03/26 07:42:45;;;;;;;8.20;5.30;;;;;;;6.45;72.61;98506.20;104949;1260;98056;-75
2024/03/26 07:45:12;;;;;;;7.70;5.20;;;;;;;6.56;72.96;98501.61;104983;1262;98106;-76
2024/03/26 07:47:40;;;;;;;9.40;6.20;;;;;;;6.63;72.60;98499.35;104979;1257;111034;-76
2024/03/26 07:50:10;;;;;;;10.30;5.40;;;;;;;6.68;72.70;98500.63;104772;1260;98341;-79
2024/03/26 07:52:39;;;;;;;6.10;4.40;;;;;;;6.74;72.84;98497.42;104802;1257;107684;-76
2024/03/26 07:55:07;;;;;;;10.00;6.00;;;;;;;6.82;72.74;98499.86;105095;1260;98078;-76
2024/03/26 07:57:37;;;;;;;9.30;6.20;;;;;;;6.90;72.48;98502.55;104839;1260;97936;-77
2024/03/26 08:00:10;;;;;;;8.70;4.90;;;;;;;6.94;72.58;98501.23;104814;1257;111091;-76
2024/03/26 08:02:38;;;;;;;5.80;3.80;;;;;;;7.03;72.58;98498.48;104834;1260;98911;-76
2024/03/26 08:05:08;;;;;;;8.50;5.10;;;;;;;7.12;72.71;98496.66;104881;1271;106835;-75
2024/03/26 08:07:36;;;;;;;7.20;4.80;;;;;;;7.18;72.49;98501.40;104748;1258;98892;-75
2024/03/26 08:10:04;;;;;;;9.60;4.90;;;;;;;7.23;72.77;98496.95;105066;1260;97920;-76
2024/03/26 08:12:32;;;;;;;7.40;5.50;;;;;;;7.33;72.89;98496.14;104915;1258;111922;-76
2024/03/26 08:15:01;;;;;;;6.90;4.70;;;;;;;7.42;72.80;98497.65;105090;1259;97968;-76
2024/03/26 08:17:31;;;;;;;6.70;4.30;;;;;;;7.49;72.64;98495.05;104696;1263;107497;-77
2024/03/26 08:19:58;;;;;;;8.30;4.30;;;;;;;7.54;72.60;98491.48;105054;1257;98035;-77
2024/03/26 08:22:26;;;;;;;7.40;4.00;;;;;;;7.59;72.46;98497.30;105077;1260;97967;-77
2024/03/26 08:24:54;;;;;;;7.20;4.20;;;;;;;7.66;72.42;98499.00;105044;1260;111353;-78
2024/03/26 08:27:22;;;;;;;5.60;3.90;;;;;;;7.75;72.51;98493.23;104971;1260;97992;-78
2024/03/26 08:29:51;;;;;;;7.00;4.30;;;;;;;7.86;72.56;98491.63;104872;1260;107912;-77
2024/03/26 08:32:19;;;;;;;4.70;3.50;;;;;;;7.96;72.49;98491.08;105004;1262;97993;-76
2024/03/26 08:34:47;;;;;;;6.20;3.90;;;;;;;7.99;72.44;98491.00;105145;1257;98593;-75
2024/03/26 08:37:15;;;;;;;6.90;4.40;;;;;;;8.05;72.34;98491.13;105061;1260;111382;-75
2024/03/26 08:39:42;;;;;;;4.90;3.50;;;;;;;8.11;72.20;98490.75;104932;1257;98589;-77
2024/03/26 08:42:11;;;;;;;4.70;3.10;;;;;;;8.20;72.25;98492.94;104796;1271;106677;-76
2024/03/26 08:44:39;;;;;;;4.40;3.20;;;;;;;8.27;72.12;98491.49;105320;1257;98057;-76
2024/03/26 08:47:09;;;;;;;3.80;2.50;;;;;;;8.31;72.02;98486.66;105019;1262;98009;-76
2024/03/26 08:49:37;;;;;;;4.90;2.70;;;;;;;8.32;71.91;98484.81;105023;1257;110322;-75
2024/03/26 08:52:05;;;;;;;4.10;2.70;;;;;;;8.38;72.08;98478.51;104935;1270;98056;-76
2024/03/26 08:54:33;;;;;;;3.60;2.50;;;;;;;8.45;72.07;98474.83;104701;1257;107249;-75
2024/03/26 08:57:00;;;;;;;4.50;2.80;;;;;;;8.51;71.96;98473.94;105060;1261;97967;-76
2024/03/26 08:59:28;;;;;;;4.30;2.90;;;;;;;8.55;71.81;98472.21;104961;1260;97974;-76
2024/03/26 09:01:56;;;;;;;3.60;2.80;;;;;;;8.57;71.59;98469.58;104843;1261;111670;-77
2024/03/26 09:04:23;;;;;;;3.70;2.50;;;;;;;8.59;71.61;98463.41;104839;1261;97951;-76
2024/03/26 09:06:53;;;;;;;4.40;2.60;;;;;;;8.64;71.74;98466.96;104824;1262;107739;-76
2024/03/26 09:09:21;;;;;;;4.70;2.70;;;;;;;8.72;71.55;98464.79;105089;1257;97999;-75
2024/03/26 09:11:48;;;;;;;4.20;2.30;;;;;;;8.72;71.34;98462.48;104976;1257;98726;-76
2024/03/26 09:14:19;;;;;;;4.00;2.70;;;;;;;8.72;71.42;98461.39;104787;1257;109869;-75
2024/03/26 09:16:46;;;;;;;4.10;2.70;;;;;;;8.80;71.30;98458.00;105032;1259;99243;-76
2024/03/26 09:19:14;;;;;;;4.10;2.50;;;;;;;8.80;71.27;98455.14;105034;1257;106467;-77
2024/03/26 09:21:42;;;;;;;4.80;2.70;;;;;;;8.84;71.16;98458.46;104931;1260;97990;-76
2024/03/26 09:24:10;;;;;;;4.70;2.80;;;;;;;8.86;71.06;98457.17;105033;1260;97885;-78
2024/03/26 09:26:40;;;;;;;4.30;2.60;;;;;;;8.91;71.24;98458.00;104974;1259;110822;-76
2024/03/26 09:29:08;;;;;;;3.80;2.80;;;;;;;9.00;71.07;98457.23;105079;1260;99239;-77
2024/03/26 09:31:35;;;;;;;5.00;3.20;;;;;;;9.04;71.12;98454.05;105057;1260;107838;-76
2024/03/26 09:34:03;;;;;;;4.60;3.30;;;;;;;9.07;70.86;98454.16;105032;1263;97987;-76
2024/03/26 09:36:31;;;;;;;4.20;2.60;;;;;;;9.08;70.89;98451.30;104812;1261;98810;-76
2024/03/26 09:38:59;;;;;;;4.60;3.00;;;;;;;9.15;70.89;98446.91;104982;1259;111072;-76
2024/03/26 09:41:38;;;;;;;4.70;3.10;;;;;;;9.20;70.88;98446.29;104928;1262;97996;-76
2024/03/26 09:44:06;;;;;;;6.00;3.60;;;;;;;9.26;70.80;98441.48;104962;1275;107454;-77
2024/03/26 09:46:35;;;;;;;4.90;2.80;;;;;;;9.24;70.68;98432.52;104838;1257;98457;-77
2024/03/26 09:49:03;;;;;;;5.40;3.50;;;;;;;9.30;70.69;98432.61;105064;1262;98287;-77
2024/03/26 09:51:33;;;;;;;3.60;2.70;;;;;;;9.41;70.62;98428.93;104779;1262;111513;-76
2024/03/26 09:54:03;;;;;;;5.40;2.90;;;;;;;9.46;70.47;98427.71;104801;1263;98050;-76
2024/03/26 09:56:30;;;;;;;4.60;2.80;;;;;;;9.47;70.47;98427.27;104770;1257;107628;-77
2024/03/26 09:58:58;;;;;;;4.40;2.60;;;;;;;9.55;70.54;98427.33;104997;1260;97987;-77
2024/03/26 10:01:26;;;;;;;3.40;2.60;;;;;;;9.66;70.64;98432.10;105122;1259;98480;-77
2024/03/26 10:03:53;;;;;;;5.10;2.90;;;;;;;9.73;70.40;98432.17;104840;1261;110487;-75
2024/03/26 10:06:22;;;;;;;3.90;2.40;;;;;;;9.75;70.21;98424.91;105049;1259;98345;-78
2024/03/26 10:08:51;;;;;;;3.10;2.00;;;;;;;9.74;70.13;98428.86;104955;1260;107328;-76
2024/03/26 10:11:19;;;;;;;3.20;2.30;;;;;;;9.78;70.05;98427.67;105085;1257;98063;-76
2024/03/26 10:13:46;;;;;;;3.10;1.90;;;;;;;9.82;70.11;98427.38;105013;1260;97967;-77
2024/03/26 10:16:17;;;;;;;2.80;1.90;;;;;;;9.92;70.18;98426.55;104989;1259;110331;-77
2024/03/26 10:18:48;;;;;;;2.20;1.70;;;;;;;10.01;70.12;98419.80;104981;1262;97894;-76
2024/03/26 10:21:16;;;;;;;3.00;1.90;;;;;;;10.05;69.96;98413.41;104915;1260;108094;-77
2024/03/26 10:23:44;;;;;;;5.30;2.40;;;;;;;10.09;69.88;98416.70;105111;1257;98843;-76
2024/03/26 10:26:11;;;;;;;3.80;2.50;;;;;;;10.17;70.04;98415.52;104730;1261;98354;-77
2024/03/26 10:28:39;;;;;;;3.20;2.20;;;;;;;10.23;69.93;98413.25;105127;1260;111021;-77
2024/03/26 10:31:07;;;;;;;3.70;2.00;;;;;;;10.27;69.66;98414.71;104790;1261;97977;-77
2024/03/26 10:33:36;;;;;;;4.80;2.30;;;;;;;10.28;69.63;98414.29;105057;1262;108533;-77
2024/03/26 10:36:09;;;;;;;3.30;1.90;;;;;;;10.28;69.45;98410.00;104869;1260;97996;-77
2024/03/26 10:38:38;;;;;;;4.30;1.90;;;;;;;10.34;69.60;98409.39;105136;1260;97901;-77
2024/03/26 10:41:23;;;;;;;3.00;2.30;;;;;;;10.41;69.32;98411.13;105074;1263;111266;-76
2024/03/26 10:43:54;;;;;;;2.70;1.70;;;;;;;10.41;69.06;98405.97;105141;1264;98063;-77
2024/03/26 10:46:22;;;;;;;2.30;1.50;;;;;;;10.43;69.16;98394.69;104821;1262;107645;-76
2024/03/26 10:48:50;;;;;;;2.40;1.60;;;;;;;10.51;69.18;98388.54;105161;1257;98781;-77
2024/03/26 10:51:29;;;;;;;2.60;1.80;;;;;;;10.47;68.93;98386.88;104846;1257;98394;-77
2024/03/26 10:54:01;;;;;;;4.90;1.70;;;;;;;10.48;68.98;98384.66;104921;1260;110767;-77
2024/03/26 10:56:33;;;;;;;2.30;1.50;;;;;;;10.53;68.92;98384.94;105224;1260;98102;-76
2024/03/26 10:59:02;;;;;;;3.00;1.80;;;;;;;10.57;68.89;98377.02;104760;1261;107585;-75
2024/03/26 11:03:37;;;;;;;2.80;1.70;;;;;;;10.59;68.72;98377.70;102647;1288;637747;-77
2024/03/26 11:06:07;;;;;;;3.80;1.80;;;;;;;10.59;68.55;98379.53;104610;1266;96228;-77
2024/03/26 11:08:43;;;;;;;2.80;1.70;;;;;;;10.64;68.59;98372.55;105014;1263;96104;-78
2024/03/26 11:11:15;;;;;;;4.50;2.10;;;;;;;10.63;68.44;98368.18;104863;1266;108463;-78
2024/03/26 11:13:43;;;;;;;4.20;1.70;;;;;;;10.69;68.40;98374.78;104844;1266;95624;-76
2024/03/26 11:16:39;;;;;;;2.70;1.60;;;;;;;10.77;68.40;98366.48;104739;1263;220945;-77
2024/03/26 11:19:28;;;;;;;2.50;1.60;;;;;;;10.79;68.24;98363.80;105054;1259;96498;-78
2024/03/26 11:21:56;;;;;;;3.30;1.70;;;;;;;10.88;68.23;98366.24;105182;1262;96200;-78
2024/03/26 11:24:34;;;;;;;2.40;1.70;;;;;;;11.02;68.32;98367.23;105166;1257;108313;-77
2024/03/26 11:27:04;;;;;;;3.50;1.90;;;;;;;11.07;67.78;98358.76;105185;1259;95544;-77
2024/03/26 11:29:40;;;;;;;2.70;1.80;;;;;;;11.03;67.59;98358.21;105140;1260;107134;-77
2024/03/26 11:32:08;;;;;;;2.80;1.70;;;;;;;11.00;67.42;98356.15;105259;1259;97979;-78